Time;durP1;ratioP1;P1;durP2;ratioP2;P2;SDS_P1;SDS_P2;PMS_P1;PMS_P2;Temp;Humidity;BMP_temperature;BMP_pressure;BME280_temperature;BME280_humidity;BME280_pressure;Samples;Min_cycle;Max_cycle;Signal;HPM_P1;HPM_P2
2022/01/02 00:01:47;;;;;;;1.35;1.05;;;19.10;61.90;;;;;;5053818;28;20036;-67
2022/01/02 00:04:17;;;;;;;0.93;0.70;;;19.10;61.90;;;;;;5053871;28;20407;-67
2022/01/02 00:06:50;;;;;;;0.63;0.63;;;19.10;62.00;;;;;;5052188;28;20103;-67
2022/01/02 00:09:33;;;;;;;1.27;0.80;;;19.10;61.90;;;;;;5052658;28;20032;-67
2022/01/02 00:12:05;;;;;;;1.30;0.82;;;19.10;61.90;;;;;;5053780;28;20021;-67
2022/01/02 00:14:34;;;;;;;0.82;0.80;;;19.10;62.00;;;;;;5053596;28;20021;-67
2022/01/02 00:17:01;;;;;;;1.10;0.90;;;19.10;62.00;;;;;;5052364;28;20052;-67
2022/01/02 00:19:30;;;;;;;0.80;0.60;;;19.10;62.00;;;;;;5036068;28;20491;-67
2022/01/02 00:21:59;;;;;;;0.75;0.73;;;19.10;62.00;;;;;;5035865;28;20024;-67
2022/01/02 00:24:26;;;;;;;1.50;1.10;;;19.10;61.90;;;;;;5053338;28;20048;-67
2022/01/02 00:26:51;;;;;;;0.75;0.70;;;19.10;61.90;;;;;;5020283;28;20029;-67
2022/01/02 00:29:17;;;;;;;1.27;1.00;;;19.10;62.00;;;;;;5032221;28;20099;-67
2022/01/02 00:31:43;;;;;;;0.98;0.70;;;19.10;61.90;;;;;;5032152;28;20021;-67
2022/01/02 00:34:09;;;;;;;1.50;0.80;;;19.10;61.90;;;;;;5032279;28;20032;-67
2022/01/02 00:36:35;;;;;;;1.30;0.77;;;19.10;61.90;;;;;;5031911;28;20029;-67
2022/01/02 00:39:01;;;;;;;1.33;0.90;;;19.10;61.90;;;;;;5046830;28;20483;-67
2022/01/02 00:41:52;;;;;;;1.02;0.80;;;19.10;61.90;;;;;;5052098;28;20032;-67
2022/01/02 00:44:59;;;;;;;0.75;0.75;;;19.10;61.70;;;;;;5053170;28;20029;-67
2022/01/02 00:47:31;;;;;;;1.83;0.88;;;19.10;61.80;;;;;;5053024;28;20021;-67
2022/01/02 00:50:10;;;;;;;0.97;0.70;;;19.10;62.00;;;;;;5052658;28;20017;-67
2022/01/02 00:52:40;;;;;;;1.10;0.80;;;19.10;61.90;;;;;;5052830;28;20049;-67
2022/01/02 00:55:11;;;;;;;0.80;0.70;;;19.10;62.00;;;;;;5052998;28;20045;-67
2022/01/02 00:57:38;;;;;;;0.70;0.60;;;19.00;62.00;;;;;;5051771;28;20104;-67
2022/01/02 01:00:11;;;;;;;1.17;0.90;;;19.10;62.00;;;;;;5052834;28;20021;-67
2022/01/02 01:02:46;;;;;;;0.80;0.70;;;19.10;61.90;;;;;;5051452;28;20046;-67
2022/01/02 01:05:20;;;;;;;1.10;0.80;;;19.10;61.90;;;;;;5051281;28;20035;-67
2022/01/02 01:07:56;;;;;;;0.95;0.80;;;19.00;61.90;;;;;;5051636;28;20051;-67
2022/01/02 01:10:23;;;;;;;1.15;0.82;;;19.10;61.90;;;;;;5051574;28;20021;-67
2022/01/02 01:12:52;;;;;;;1.08;0.75;;;19.00;61.90;;;;;;5051155;28;20100;-67
2022/01/02 01:15:17;;;;;;;0.93;0.70;;;19.10;61.90;;;;;;5051310;28;20137;-67
2022/01/02 01:17:43;;;;;;;1.38;0.57;;;19.00;61.90;;;;;;5052521;28;20487;-67
2022/01/02 01:20:12;;;;;;;1.00;0.63;;;19.10;61.90;;;;;;5034557;28;20029;-67
2022/01/02 01:22:39;;;;;;;1.00;0.63;;;19.10;61.90;;;;;;5052545;28;20449;-67
2022/01/02 01:25:07;;;;;;;1.17;0.63;;;19.00;61.80;;;;;;5051384;28;20033;-67
2022/01/02 01:27:33;;;;;;;0.95;0.82;;;19.10;61.90;;;;;;5032356;28;20041;-67
2022/01/02 01:29:59;;;;;;;0.75;0.65;;;19.10;61.90;;;;;;5032793;28;20033;-67
2022/01/02 01:32:24;;;;;;;1.55;0.80;;;19.00;61.80;;;;;;5032409;28;20518;-67
2022/01/02 01:34:50;;;;;;;0.98;0.70;;;19.10;61.90;;;;;;5032085;28;20025;-67
2022/01/02 01:37:16;;;;;;;1.02;0.70;;;19.10;61.90;;;;;;5031327;28;20163;-67
2022/01/02 01:39:41;;;;;;;0.95;0.80;;;19.00;61.80;;;;;;5050342;28;20074;-67
2022/01/02 01:42:10;;;;;;;1.05;0.68;;;19.10;61.90;;;;;;5052341;28;20036;-67
2022/01/02 01:47:13;;;;;;;0.60;0.60;;;19.10;61.90;;;;;;5052404;28;20029;-67
2022/01/02 01:49:39;;;;;;;0.70;0.70;;;19.10;61.90;;;;;;5051962;28;20100;-67
2022/01/02 01:52:05;;;;;;;0.77;0.77;;;19.10;61.90;;;;;;5051060;28;20021;-67
2022/01/02 01:54:30;;;;;;;0.82;0.73;;;19.10;61.90;;;;;;5052134;28;20024;-67
2022/01/02 01:56:56;;;;;;;1.13;0.68;;;19.10;61.90;;;;;;5052293;28;20060;-67
2022/01/02 01:59:21;;;;;;;0.80;0.70;;;19.10;61.90;;;;;;5052246;28;20033;-67
2022/01/02 02:01:47;;;;;;;2.08;0.80;;;19.00;61.80;;;;;;5052249;28;20541;-67
2022/01/02 02:04:13;;;;;;;0.60;0.60;;;19.10;61.90;;;;;;5050529;28;20021;-67
2022/01/02 02:06:39;;;;;;;2.03;0.90;;;19.10;61.90;;;;;;5050783;28;20484;-67
2022/01/02 02:09:05;;;;;;;0.63;0.63;;;19.10;61.90;;;;;;5050894;28;20021;-67
2022/01/02 02:11:31;;;;;;;0.65;0.52;;;19.10;61.90;;;;;;5052109;28;20028;-67
2022/01/02 02:13:56;;;;;;;1.60;0.88;;;19.10;61.90;;;;;;5050881;28;20021;-67
2022/01/02 02:16:23;;;;;;;0.95;0.70;;;19.00;61.80;;;;;;5050557;28;20029;-67
2022/01/02 02:18:49;;;;;;;1.15;0.80;;;19.10;61.90;;;;;;5050366;28;20383;-67
2022/01/02 02:21:14;;;;;;;0.75;0.70;;;19.00;61.80;;;;;;5050840;28;20036;-67
2022/01/02 02:23:42;;;;;;;0.70;0.50;;;19.10;61.90;;;;;;5034134;28;20071;-67
2022/01/02 02:26:08;;;;;;;0.75;0.57;;;19.00;61.80;;;;;;5027753;28;20053;-67
2022/01/02 02:28:34;;;;;;;0.60;0.60;;;19.00;61.80;;;;;;5034457;28;20091;-67
2022/01/02 02:31:00;;;;;;;0.88;0.60;;;19.10;61.90;;;;;;5035472;28;20029;-67
2022/01/02 02:33:25;;;;;;;0.68;0.60;;;19.10;61.90;;;;;;5034319;28;20049;-67
2022/01/02 02:35:51;;;;;;;0.73;0.70;;;19.10;61.90;;;;;;5034301;28;20025;-67
2022/01/02 02:38:18;;;;;;;0.75;0.68;;;19.00;61.80;;;;;;5042099;28;20016;-67
2022/01/02 02:40:43;;;;;;;1.60;0.77;;;19.10;61.90;;;;;;5037813;28;20021;-67
2022/01/02 02:43:43;;;;;;;1.10;0.77;;;19.10;62.90;;;;;;5054182;28;20386;-67
2022/01/02 02:49:00;;;;;;;1.02;0.70;;;19.00;61.90;;;;;;5055541;28;20082;-67
2022/01/02 02:54:21;;;;;;;0.82;0.60;;;19.00;61.90;;;;;;5055275;28;20062;-67
2022/01/02 02:56:59;;;;;;;0.77;0.70;;;19.00;61.90;;;;;;5055260;28;20132;-67
2022/01/02 02:59:26;;;;;;;0.85;0.70;;;19.00;61.90;;;;;;5039074;28;20032;-67
2022/01/02 03:01:52;;;;;;;0.73;0.50;;;19.00;62.00;;;;;;5037049;28;20491;-67
2022/01/02 03:04:18;;;;;;;1.13;0.70;;;19.00;61.90;;;;;;5037245;28;20113;-67
2022/01/02 03:06:44;;;;;;;1.25;0.80;;;19.00;61.80;;;;;;5054925;28;20036;-67
2022/01/02 03:09:10;;;;;;;1.25;0.80;;;19.00;61.80;;;;;;5054883;28;20100;-67
2022/01/02 03:11:41;;;;;;;2.38;0.70;;;19.00;61.80;;;;;;5053654;28;20028;-67
2022/01/02 03:14:11;;;;;;;1.05;0.70;;;19.10;61.80;;;;;;5054930;28;20009;-67
2022/01/02 03:16:37;;;;;;;0.95;0.68;;;19.10;61.90;;;;;;5036902;28;20055;-67
2022/01/02 03:19:03;;;;;;;0.63;0.60;;;19.10;61.90;;;;;;5053717;28;20517;-67
2022/01/02 03:21:29;;;;;;;1.85;0.80;;;19.10;61.90;;;;;;5053630;28;20025;-67
2022/01/02 03:23:54;;;;;;;1.38;0.65;;;19.10;61.90;;;;;;5053502;28;20036;-67
2022/01/02 03:26:20;;;;;;;1.33;0.93;;;19.00;61.80;;;;;;5041877;28;20050;-67
2022/01/02 03:28:46;;;;;;;1.02;0.70;;;19.00;61.80;;;;;;5034482;28;20484;-67
2022/01/02 03:31:11;;;;;;;0.80;0.57;;;19.00;61.80;;;;;;5034318;28;20112;-67
2022/01/02 03:33:37;;;;;;;0.50;0.50;;;19.00;61.80;;;;;;5034727;28;20021;-67
2022/01/02 03:36:03;;;;;;;1.30;0.80;;;19.10;61.80;;;;;;5032859;28;20030;-67
2022/01/02 03:38:29;;;;;;;1.10;0.65;;;19.00;61.80;;;;;;5042464;28;20009;-67
2022/01/02 03:40:54;;;;;;;0.40;0.40;;;19.00;61.80;;;;;;5054250;28;20530;-67
2022/01/02 03:43:20;;;;;;;0.85;0.70;;;19.00;61.80;;;;;;5054193;28;20074;-67
2022/01/02 03:45:46;;;;;;;0.70;0.55;;;19.00;61.70;;;;;;5052915;28;20036;-67
2022/01/02 03:48:11;;;;;;;0.88;0.55;;;19.00;61.80;;;;;;5036578;28;20075;-67
2022/01/02 03:50:37;;;;;;;1.00;0.70;;;19.00;61.80;;;;;;5054146;28;20112;-67
2022/01/02 03:53:03;;;;;;;1.13;0.70;;;19.00;61.80;;;;;;5053911;28;20029;-67
2022/01/02 03:55:29;;;;;;;0.95;0.60;;;19.00;61.80;;;;;;5053048;28;20025;-67
2022/01/02 03:57:54;;;;;;;0.77;0.68;;;19.00;61.80;;;;;;5054036;28;20029;-67
2022/01/02 04:00:20;;;;;;;0.80;0.50;;;19.00;61.80;;;;;;5053499;28;20495;-67
2022/01/02 04:02:46;;;;;;;1.20;0.82;;;19.10;61.80;;;;;;5053911;28;20056;-67
2022/01/02 04:05:12;;;;;;;1.10;0.63;;;19.10;61.80;;;;;;5052747;28;20033;-67
2022/01/02 04:07:38;;;;;;;0.82;0.70;;;19.10;61.80;;;;;;5036078;28;20032;-67
2022/01/02 04:10:06;;;;;;;0.70;0.50;;;19.10;61.70;;;;;;5053761;28;20036;-67
2022/01/02 04:12:32;;;;;;;0.70;0.52;;;19.00;61.70;;;;;;5052544;28;20016;-67
2022/01/02 04:14:58;;;;;;;1.10;0.88;;;19.00;61.70;;;;;;5053457;28;20530;-67
2022/01/02 04:17:23;;;;;;;0.95;0.60;;;19.00;61.70;;;;;;5035813;28;20017;-67
2022/01/02 04:19:50;;;;;;;0.50;0.50;;;19.00;61.70;;;;;;5053402;28;20036;-67
2022/01/02 04:22:16;;;;;;;1.52;0.60;;;19.00;61.70;;;;;;5052459;28;20041;-67
2022/01/02 04:24:41;;;;;;;1.25;0.65;;;19.00;61.70;;;;;;5053296;28;20083;-67
2022/01/02 04:27:07;;;;;;;0.73;0.57;;;19.00;61.70;;;;;;5034427;28;20084;-67
2022/01/02 04:29:32;;;;;;;0.85;0.50;;;19.00;61.80;;;;;;5031967;28;20029;-67
2022/01/02 04:31:58;;;;;;;0.90;0.70;;;19.10;61.80;;;;;;5033377;28;20109;-67
2022/01/02 04:34:24;;;;;;;1.05;0.60;;;19.00;61.70;;;;;;5033483;28;20029;-67
2022/01/02 04:36:49;;;;;;;1.90;0.80;;;19.00;61.70;;;;;;5033783;28;20400;-67
2022/01/02 04:39:15;;;;;;;0.63;0.47;;;19.00;61.70;;;;;;5047726;28;20032;-67
2022/01/02 04:41:41;;;;;;;0.95;0.50;;;19.00;62.70;;;;;;5052254;28;20025;-67
2022/01/02 04:44:06;;;;;;;1.55;0.70;;;19.00;61.70;;;;;;5052914;28;20107;-67
2022/01/02 04:46:32;;;;;;;0.73;0.52;;;19.00;61.70;;;;;;5053002;28;20517;-67
2022/01/02 04:48:57;;;;;;;0.50;0.50;;;19.00;61.70;;;;;;5051357;28;20033;-67
2022/01/02 04:51:23;;;;;;;1.75;0.85;;;19.00;61.70;;;;;;5051829;28;20015;-67
2022/01/02 04:53:49;;;;;;;0.70;0.65;;;19.00;61.70;;;;;;5052870;28;20029;-67
2022/01/02 04:56:17;;;;;;;0.68;0.60;;;19.00;61.70;;;;;;5052929;28;20055;-67
2022/01/02 04:58:43;;;;;;;0.60;0.60;;;19.00;61.70;;;;;;5034870;28;20597;-67
2022/01/02 05:01:11;;;;;;;0.75;0.50;;;19.00;61.70;;;;;;5051624;28;20021;-67
2022/01/02 05:03:41;;;;;;;0.77;0.65;;;19.00;61.70;;;;;;5052921;28;20479;-67
2022/01/02 05:06:07;;;;;;;0.98;0.50;;;19.00;61.70;;;;;;5051448;28;20024;-67
2022/01/02 05:08:33;;;;;;;1.17;0.73;;;19.00;61.70;;;;;;5051630;28;20025;-67
2022/01/02 05:10:59;;;;;;;0.63;0.50;;;19.00;61.70;;;;;;5051168;28;20028;-67
2022/01/02 05:13:24;;;;;;;1.00;0.70;;;19.00;61.60;;;;;;5051728;28;20025;-67
2022/01/02 05:15:50;;;;;;;0.70;0.40;;;19.00;61.70;;;;;;5052614;28;20379;-67
2022/01/02 05:18:16;;;;;;;1.45;0.65;;;19.00;61.70;;;;;;5051516;28;20057;-67
2022/01/02 05:20:44;;;;;;;0.60;0.50;;;19.00;61.70;;;;;;5052388;28;20377;-67
2022/01/02 05:23:10;;;;;;;1.60;0.90;;;19.00;61.70;;;;;;5051334;28;20021;-67
2022/01/02 05:25:35;;;;;;;0.60;0.60;;;19.00;61.70;;;;;;5045806;28;20061;-67
2022/01/02 05:28:01;;;;;;;1.05;0.70;;;19.00;61.70;;;;;;5031158;28;20396;-67
2022/01/02 05:30:27;;;;;;;1.33;0.60;;;19.00;61.70;;;;;;5032766;28;20025;-67
2022/01/02 05:32:52;;;;;;;0.65;0.50;;;19.00;61.70;;;;;;5032277;28;20026;-67
2022/01/02 05:35:18;;;;;;;1.13;0.70;;;19.00;61.70;;;;;;5032477;28;20036;-67
2022/01/02 05:37:43;;;;;;;0.82;0.55;;;19.00;61.70;;;;;;5035278;28;20036;-67
2022/01/02 05:40:09;;;;;;;1.00;0.60;;;19.00;61.70;;;;;;5052146;28;20421;-67
2022/01/02 05:42:35;;;;;;;0.85;0.50;;;19.00;61.70;;;;;;5052215;28;20108;-67
2022/01/02 05:45:00;;;;;;;0.70;0.40;;;19.00;61.70;;;;;;5052300;28;20059;-67
2022/01/02 05:47:26;;;;;;;1.63;0.70;;;19.00;61.60;;;;;;5052251;28;20040;-67
2022/01/02 05:49:52;;;;;;;1.10;0.70;;;19.00;61.60;;;;;;5052037;28;20049;-67
2022/01/02 05:52:17;;;;;;;1.35;0.60;;;19.00;61.70;;;;;;5051148;28;20096;-67
2022/01/02 05:54:43;;;;;;;0.88;0.65;;;19.00;61.70;;;;;;5051862;28;20025;-67
2022/01/02 05:57:08;;;;;;;0.52;0.52;;;19.00;61.60;;;;;;5051028;28;20551;-67
2022/01/02 05:59:36;;;;;;;1.30;0.65;;;19.00;61.60;;;;;;5054518;28;20066;-67
2022/01/02 06:02:02;;;;;;;1.13;0.50;;;19.00;61.60;;;;;;5055940;28;20116;-67
2022/01/02 06:04:27;;;;;;;1.40;0.63;;;19.00;61.60;;;;;;5056147;28;20119;-67
2022/01/02 06:06:53;;;;;;;1.55;0.80;;;19.00;61.70;;;;;;5054821;28;20029;-67
2022/01/02 06:09:19;;;;;;;1.10;0.70;;;19.00;61.60;;;;;;5054556;28;20025;-67
2022/01/02 06:11:44;;;;;;;0.65;0.50;;;19.00;61.60;;;;;;5055963;28;20036;-67
2022/01/02 06:14:10;;;;;;;0.50;0.43;;;19.00;61.70;;;;;;5055986;28;20033;-67
2022/01/02 06:16:36;;;;;;;1.35;0.52;;;19.00;61.60;;;;;;5056467;28;20029;-67
2022/01/02 06:19:01;;;;;;;0.52;0.43;;;19.00;61.60;;;;;;5055879;28;20029;-67
2022/01/02 06:21:27;;;;;;;0.80;0.60;;;19.00;61.70;;;;;;5056061;28;20122;-67
2022/01/02 06:23:53;;;;;;;0.93;0.60;;;19.00;61.70;;;;;;5054188;28;20036;-67
2022/01/02 06:26:18;;;;;;;0.75;0.50;;;19.00;61.60;;;;;;5044346;28;20049;-67
2022/01/02 06:28:44;;;;;;;1.00;0.60;;;19.00;61.70;;;;;;5035979;28;20102;-67
2022/01/02 06:31:09;;;;;;;1.02;0.65;;;19.00;61.60;;;;;;5035605;28;20029;-67
2022/01/02 06:33:35;;;;;;;1.27;0.55;;;19.00;61.60;;;;;;5034669;28;20058;-67
2022/01/02 06:36:01;;;;;;;0.68;0.50;;;19.00;61.60;;;;;;5034421;28;20025;-67
2022/01/02 06:38:27;;;;;;;1.17;0.50;;;19.00;61.60;;;;;;5042923;28;20476;-67
2022/01/02 06:40:52;;;;;;;1.65;0.57;;;19.00;61.60;;;;;;5054284;28;20550;-67
2022/01/02 06:43:18;;;;;;;0.50;0.40;;;19.00;61.70;;;;;;5055385;28;20025;-67
2022/01/02 06:45:44;;;;;;;0.70;0.50;;;19.00;61.60;;;;;;5055274;28;20024;-67
2022/01/02 06:48:10;;;;;;;1.30;0.50;;;19.00;61.60;;;;;;5054102;28;20021;-67
2022/01/02 06:50:35;;;;;;;0.82;0.50;;;19.00;61.60;;;;;;5055363;28;20032;-67
2022/01/02 06:53:01;;;;;;;0.75;0.57;;;19.00;61.60;;;;;;5037137;28;20021;-67
2022/01/02 06:55:26;;;;;;;0.55;0.50;;;19.00;61.70;;;;;;5055281;28;20032;-67
2022/01/02 06:57:52;;;;;;;1.00;0.70;;;19.00;61.60;;;;;;5055147;28;20052;-67
2022/01/02 07:00:18;;;;;;;1.13;0.50;;;19.00;61.60;;;;;;5053913;28;20471;-67
2022/01/02 07:02:43;;;;;;;0.50;0.50;;;19.00;61.60;;;;;;5054958;28;20079;-67
2022/01/02 07:05:09;;;;;;;0.95;0.60;;;19.00;61.60;;;;;;5054922;28;20028;-67
2022/01/02 07:07:44;;;;;;;1.15;0.55;;;19.00;61.70;;;;;;5054700;28;20118;-67
2022/01/02 07:10:10;;;;;;;0.80;0.43;;;19.00;61.60;;;;;;5054513;28;20505;-67
2022/01/02 07:12:36;;;;;;;0.70;0.40;;;19.00;62.70;;;;;;5053677;28;20091;-67
2022/01/02 07:15:06;;;;;;;1.25;0.80;;;19.00;61.60;;;;;;5053682;28;20025;-67
2022/01/02 07:17:32;;;;;;;1.15;0.70;;;19.00;61.60;;;;;;5054776;28;20052;-67
2022/01/02 07:19:57;;;;;;;0.70;0.50;;;19.00;61.60;;;;;;5053500;28;20118;-67
2022/01/02 07:22:23;;;;;;;1.00;0.57;;;19.00;61.70;;;;;;5053295;28;20398;-67
2022/01/02 07:24:51;;;;;;;1.25;0.55;;;19.00;61.60;;;;;;5054654;28;20479;-67
2022/01/02 07:27:20;;;;;;;0.68;0.52;;;19.00;61.60;;;;;;5034098;28;20046;-67
2022/01/02 07:29:50;;;;;;;0.95;0.63;;;19.00;61.70;;;;;;5034660;28;20079;-67
2022/01/02 07:32:15;;;;;;;0.60;0.45;;;19.00;61.60;;;;;;5033357;28;20009;-67
2022/01/02 07:34:42;;;;;;;1.02;0.60;;;19.00;61.60;;;;;;5033417;28;20043;-67
2022/01/02 07:37:08;;;;;;;0.77;0.50;;;19.00;61.60;;;;;;5033047;28;20021;-67
2022/01/02 07:39:34;;;;;;;0.57;0.40;;;19.00;61.60;;;;;;5051527;28;20498;-67
2022/01/02 07:41:59;;;;;;;0.60;0.50;;;19.00;61.60;;;;;;5054304;28;20055;-67
2022/01/02 07:44:25;;;;;;;0.90;0.50;;;19.00;61.70;;;;;;5054430;28;20033;-67
2022/01/02 07:46:51;;;;;;;0.70;0.40;;;19.00;61.60;;;;;;5052913;28;20052;-67
2022/01/02 07:49:16;;;;;;;0.63;0.40;;;19.00;61.60;;;;;;5054212;28;20047;-67
2022/01/02 07:51:42;;;;;;;0.85;0.40;;;19.00;61.60;;;;;;5053815;28;20028;-67
2022/01/02 07:54:07;;;;;;;0.85;0.52;;;19.00;61.60;;;;;;5054086;28;20021;-67
2022/01/02 07:56:33;;;;;;;1.65;0.63;;;19.00;61.60;;;;;;5054095;28;20494;-67
2022/01/02 07:58:59;;;;;;;0.80;0.50;;;19.00;61.60;;;;;;5054074;28;20107;-67
2022/01/02 08:01:25;;;;;;;0.60;0.60;;;19.00;61.60;;;;;;5053991;28;20052;-67
2022/01/02 08:03:51;;;;;;;1.13;0.55;;;19.00;61.60;;;;;;5052722;28;20514;-67
2022/01/02 08:06:17;;;;;;;1.00;0.40;;;19.00;61.60;;;;;;5052451;28;20029;-67
2022/01/02 08:08:44;;;;;;;0.68;0.43;;;19.00;61.60;;;;;;5053774;28;20048;-67
2022/01/02 08:11:09;;;;;;;0.75;0.57;;;19.00;61.60;;;;;;5053837;28;20024;-67
2022/01/02 08:13:35;;;;;;;0.88;0.40;;;19.00;61.60;;;;;;5053855;28;20055;-67
2022/01/02 08:16:01;;;;;;;0.50;0.30;;;19.00;61.60;;;;;;5053793;28;20047;-67
2022/01/02 08:18:26;;;;;;;0.70;0.40;;;19.00;61.60;;;;;;5053460;28;20453;-67
2022/01/02 08:20:52;;;;;;;1.52;0.60;;;19.00;61.60;;;;;;5053447;28;20032;-67
2022/01/02 08:23:17;;;;;;;0.70;0.50;;;19.00;61.60;;;;;;5053486;28;20036;-67
2022/01/02 08:25:43;;;;;;;0.65;0.50;;;19.00;61.60;;;;;;5046019;28;20040;-67
2022/01/02 08:28:09;;;;;;;0.75;0.50;;;19.00;61.50;;;;;;5032209;28;20043;-67
2022/01/02 08:30:34;;;;;;;0.93;0.40;;;19.00;61.60;;;;;;5033397;28;20392;-67
2022/01/02 08:33:00;;;;;;;0.68;0.40;;;19.00;61.60;;;;;;5032312;28;20079;-67
2022/01/02 08:35:26;;;;;;;1.10;0.57;;;19.00;61.60;;;;;;5033105;28;20499;-67
2022/01/02 08:37:51;;;;;;;1.02;0.50;;;19.00;61.60;;;;;;5036110;28;20513;-67
2022/01/02 08:40:17;;;;;;;0.68;0.60;;;19.00;61.60;;;;;;5053315;28;20459;-67
2022/01/02 08:42:42;;;;;;;0.85;0.63;;;19.00;61.50;;;;;;5051910;28;20067;-67
2022/01/02 08:45:08;;;;;;;0.65;0.50;;;19.00;61.60;;;;;;5053209;28;20025;-67
2022/01/02 08:47:34;;;;;;;0.60;0.40;;;19.00;61.50;;;;;;5035149;28;20060;-67
2022/01/02 08:50:00;;;;;;;1.00;0.60;;;18.90;61.50;;;;;;5052720;28;20025;-67
2022/01/02 08:52:26;;;;;;;0.75;0.60;;;19.00;61.50;;;;;;5051952;28;20021;-67
2022/01/02 08:54:51;;;;;;;0.82;0.60;;;19.00;61.60;;;;;;5052934;28;20021;-67
2022/01/02 08:57:17;;;;;;;0.93;0.50;;;19.00;61.50;;;;;;5052893;28;20036;-67
2022/01/02 08:59:43;;;;;;;0.82;0.40;;;19.00;61.50;;;;;;5051736;28;20021;-67
2022/01/02 09:02:08;;;;;;;1.30;0.70;;;19.00;61.50;;;;;;5052708;28;20075;-67
2022/01/02 09:04:34;;;;;;;1.25;0.70;;;19.00;61.50;;;;;;5052477;28;20120;-67
2022/01/02 09:07:01;;;;;;;0.70;0.52;;;19.00;61.50;;;;;;5051665;28;20052;-67
2022/01/02 09:09:27;;;;;;;0.63;0.60;;;19.00;61.50;;;;;;5051635;28;20096;-67
2022/01/02 09:11:53;;;;;;;1.00;0.50;;;19.00;61.50;;;;;;5052701;28;20025;-67
2022/01/02 09:14:18;;;;;;;0.63;0.50;;;18.90;61.50;;;;;;5051464;28;20021;-67
2022/01/02 09:16:44;;;;;;;1.08;0.50;;;19.00;61.50;;;;;;5034880;28;20036;-67
2022/01/02 09:19:11;;;;;;;1.13;0.55;;;19.00;61.50;;;;;;5052116;28;20078;-67
2022/01/02 09:21:36;;;;;;;0.47;0.40;;;19.00;61.50;;;;;;5051583;28;20036;-67
2022/01/02 09:24:03;;;;;;;0.90;0.60;;;19.00;61.50;;;;;;5052539;28;20021;-67
2022/01/02 09:26:28;;;;;;;1.33;0.60;;;19.00;61.50;;;;;;5039643;28;20383;-67
2022/01/02 09:28:54;;;;;;;0.95;0.50;;;19.00;61.50;;;;;;5031498;28;20024;-67
2022/01/02 09:31:19;;;;;;;0.77;0.52;;;19.00;61.50;;;;;;5031234;28;20021;-67
2022/01/02 09:33:45;;;;;;;0.82;0.50;;;19.00;61.50;;;;;;5030662;28;20544;-67
2022/01/02 09:36:11;;;;;;;0.50;0.50;;;19.00;61.50;;;;;;5031450;28;20017;-67
2022/01/02 09:38:36;;;;;;;0.55;0.52;;;18.90;61.40;;;;;;5042429;28;20013;-67
2022/01/02 09:41:02;;;;;;;0.85;0.55;;;19.00;61.50;;;;;;5051103;28;20029;-67
2022/01/02 09:43:28;;;;;;;1.20;0.52;;;19.00;61.50;;;;;;5052323;28;20029;-67
2022/01/02 09:45:53;;;;;;;0.93;0.50;;;18.90;61.50;;;;;;5051170;28;20025;-67
2022/01/02 09:48:19;;;;;;;0.52;0.50;;;19.00;61.50;;;;;;5034110;28;20029;-67
2022/01/02 09:50:47;;;;;;;0.60;0.40;;;19.00;61.50;;;;;;5051165;28;20052;-67
2022/01/02 09:53:12;;;;;;;1.23;0.75;;;19.00;61.50;;;;;;5052108;28;20399;-67
2022/01/02 09:55:38;;;;;;;1.58;0.60;;;18.90;61.50;;;;;;5052220;28;20025;-67
2022/01/02 09:58:10;;;;;;;1.13;0.68;;;18.90;61.50;;;;;;5052347;28;20445;-67
2022/01/02 10:00:35;;;;;;;0.50;0.43;;;19.00;61.50;;;;;;5052070;28;20067;-67
2022/01/02 10:03:05;;;;;;;1.25;0.50;;;18.90;61.40;;;;;;5033954;28;20299;-67
2022/01/02 10:05:59;;;;;;;0.60;0.50;;;19.00;61.50;;;;;;5051011;28;20021;-67
2022/01/02 10:08:29;;;;;;;0.88;0.57;;;19.00;61.40;;;;;;5050812;28;20032;-67
2022/01/02 10:10:59;;;;;;;1.40;0.63;;;18.90;61.50;;;;;;5051078;28;20013;-67
2022/01/02 10:13:40;;;;;;;1.15;0.50;;;19.00;61.50;;;;;;5050953;28;20459;-67
2022/01/02 10:16:26;;;;;;;0.98;0.68;;;18.90;61.40;;;;;;5051815;28;20032;-67
2022/01/02 10:18:52;;;;;;;0.93;0.50;;;18.90;61.30;;;;;;5051463;28;20044;-67
2022/01/02 10:21:34;;;;;;;0.55;0.40;;;18.90;61.50;;;;;;5051892;28;20080;-67
2022/01/02 10:24:21;;;;;;;1.60;0.77;;;19.00;61.40;;;;;;5050785;28;20487;-67
2022/01/02 10:27:05;;;;;;;0.52;0.50;;;18.90;61.40;;;;;;5035834;28;20048;-67
2022/01/02 10:29:41;;;;;;;0.40;0.40;;;19.00;61.50;;;;;;5032020;28;20139;-67
2022/01/02 10:32:25;;;;;;;2.33;0.75;;;18.90;61.50;;;;;;5031661;28;20022;-67
2022/01/02 10:34:51;;;;;;;0.60;0.60;;;18.90;61.30;;;;;;5031979;28;20079;-67
2022/01/02 10:37:26;;;;;;;0.75;0.50;;;18.90;61.50;;;;;;5030696;28;20559;-67
2022/01/02 10:39:52;;;;;;;0.63;0.50;;;18.90;61.50;;;;;;5030749;28;20026;-67
2022/01/02 10:42:18;;;;;;;1.15;0.60;;;18.90;61.50;;;;;;5030744;28;20492;-66
2022/01/02 10:44:44;;;;;;;0.95;0.47;;;18.90;61.50;;;;;;5030238;28;20104;-67
2022/01/02 10:47:21;;;;;;;1.65;0.70;;;18.90;61.50;;;;;;5034537;28;20132;-67
2022/01/02 10:50:03;;;;;;;0.70;0.43;;;19.00;62.50;;;;;;5018569;28;20438;-67
2022/01/02 10:52:33;;;;;;;0.85;0.65;;;18.90;61.50;;;;;;5035530;28;20056;-67
2022/01/02 10:55:07;;;;;;;1.58;0.60;;;18.90;61.50;;;;;;5018393;28;20038;-67
2022/01/02 10:57:33;;;;;;;0.98;0.65;;;18.90;61.50;;;;;;5034169;28;20056;-67
2022/01/02 10:59:59;;;;;;;0.82;0.70;;;18.90;61.50;;;;;;5017346;28;20108;-67
2022/01/02 11:02:25;;;;;;;1.33;0.70;;;18.90;61.50;;;;;;5033991;28;20096;-67
2022/01/02 11:05:12;;;;;;;1.55;0.65;;;18.90;61.40;;;;;;5017544;28;20065;-67
2022/01/02 11:07:39;;;;;;;0.60;0.50;;;19.00;61.40;;;;;;5034921;28;20435;-67
2022/01/02 11:10:05;;;;;;;0.93;0.60;;;18.90;61.50;;;;;;5033910;28;20048;-67
2022/01/02 11:12:31;;;;;;;1.13;0.60;;;18.90;61.50;;;;;;5035065;28;20084;-67
2022/01/02 11:14:57;;;;;;;0.90;0.52;;;18.90;61.40;;;;;;5033573;28;20052;-67
2022/01/02 11:17:22;;;;;;;1.25;0.50;;;18.90;61.40;;;;;;5033639;28;20084;-67
2022/01/02 11:19:48;;;;;;;1.50;0.60;;;18.90;61.50;;;;;;5033662;28;20038;-67
2022/01/02 11:22:25;;;;;;;0.47;0.40;;;18.90;61.40;;;;;;5034951;28;20025;-67
2022/01/02 11:25:26;;;;;;;1.35;0.70;;;18.90;61.50;;;;;;5033754;28;20049;-67
2022/01/02 11:27:59;;;;;;;1.30;0.82;;;18.90;61.30;;;;;;5015878;28;20496;-67
2022/01/02 11:30:31;;;;;;;1.67;0.75;;;18.90;61.50;;;;;;5000358;28;20030;-67
2022/01/02 11:33:07;;;;;;;0.75;0.32;;;18.90;61.50;;;;;;5032619;28;20037;-67
2022/01/02 11:35:32;;;;;;;1.65;0.50;;;18.90;61.40;;;;;;5015927;28;20030;-67
2022/01/02 11:38:02;;;;;;;0.63;0.50;;;18.90;61.60;;;;;;5032263;28;20033;-67
2022/01/02 11:40:47;;;;;;;1.40;0.75;;;18.90;61.50;;;;;;5032419;28;20034;-67
2022/01/02 11:43:47;;;;;;;0.85;0.52;;;19.00;61.40;;;;;;5032085;28;20022;-67
2022/01/02 11:46:36;;;;;;;0.73;0.43;;;19.00;61.40;;;;;;5032204;28;20050;-67
2022/01/02 11:49:08;;;;;;;0.45;0.40;;;18.90;61.50;;;;;;5032398;28;20030;-67
2022/01/02 11:52:05;;;;;;;1.40;0.75;;;18.90;61.50;;;;;;5032269;28;20491;-67
2022/01/02 11:54:40;;;;;;;1.20;0.60;;;18.90;61.30;;;;;;5024326;28;20038;-67
2022/01/02 11:57:12;;;;;;;1.80;0.70;;;18.90;61.60;;;;;;5031439;28;20065;-67
2022/01/02 11:59:42;;;;;;;1.17;0.60;;;18.90;61.50;;;;;;5032045;28;20033;-67
2022/01/02 12:02:27;;;;;;;1.58;0.68;;;18.90;61.50;;;;;;5032113;28;20064;-67
2022/01/02 12:07:34;;;;;;;1.30;0.50;;;18.90;61.50;;;;;;5034011;28;20091;-67
2022/01/02 12:10:20;;;;;;;1.27;0.70;;;18.90;61.50;;;;;;5033825;28;20057;-67
2022/01/02 12:13:02;;;;;;;1.33;0.70;;;18.90;61.50;;;;;;5033778;28;20025;-67
2022/01/02 12:15:31;;;;;;;1.05;0.60;;;18.90;61.40;;;;;;5033831;28;20025;-67
2022/01/02 12:18:13;;;;;;;1.35;0.75;;;18.90;61.50;;;;;;5033788;28;20072;-67
2022/01/02 12:20:54;;;;;;;1.23;0.68;;;18.90;61.50;;;;;;5032673;28;20032;-67
2022/01/02 12:23:41;;;;;;;1.30;0.70;;;18.90;61.50;;;;;;5033590;28;20028;-67
2022/01/02 12:26:21;;;;;;;0.95;0.70;;;18.90;61.50;;;;;;5032968;28;20110;-67
2022/01/02 12:28:59;;;;;;;1.15;0.60;;;18.90;61.50;;;;;;5032626;28;20384;-67
2022/01/02 12:31:35;;;;;;;1.10;0.60;;;18.90;61.50;;;;;;5032562;28;20022;-67
2022/01/02 12:34:17;;;;;;;1.35;0.75;;;18.90;61.50;;;;;;5032298;28;20026;-67
2022/01/02 12:36:44;;;;;;;1.92;0.80;;;18.90;61.40;;;;;;5015887;28;20053;-67
2022/01/02 12:39:25;;;;;;;1.42;0.77;;;18.90;61.50;;;;;;5046744;28;20481;-67
2022/01/02 12:41:51;;;;;;;1.17;0.80;;;19.00;61.40;;;;;;5035317;28;20392;-67
2022/01/02 12:44:25;;;;;;;1.35;0.70;;;18.90;61.50;;;;;;5053272;28;20092;-67
2022/01/02 12:46:52;;;;;;;1.02;0.60;;;19.00;61.50;;;;;;5052036;28;20024;-67
2022/01/02 12:49:21;;;;;;;1.50;0.70;;;18.90;61.50;;;;;;5052066;28;20066;-67
2022/01/02 12:51:48;;;;;;;1.25;0.60;;;18.90;61.50;;;;;;5052789;28;20013;-67
2022/01/02 12:54:15;;;;;;;1.13;0.47;;;18.90;61.50;;;;;;5051900;28;20013;-67
2022/01/02 12:56:45;;;;;;;1.10;0.70;;;18.90;61.40;;;;;;5051527;28;20021;-67
2022/01/02 12:59:29;;;;;;;1.08;0.55;;;19.00;61.40;;;;;;5051838;28;20082;-66
2022/01/02 13:01:59;;;;;;;0.98;0.63;;;18.90;61.30;;;;;;5052785;28;20098;-67
2022/01/02 13:04:38;;;;;;;1.50;0.93;;;18.90;61.40;;;;;;5052753;28;20028;-67
2022/01/02 13:07:12;;;;;;;1.10;0.73;;;18.90;61.40;;;;;;5036749;28;20532;-67